Scroll down
FLIGHT INFORMATION
United Airlines

UAL213

At Arrival Gate

KIND
 KOKC
DATE: 2021-02-13
GATE: 
GATE DEPARTURE: 17:42
TAKEOFF: 17:56
DATE: 2021-02-13
GATE: 12
LANDING: 19:48
GATE ARRIVAL: 19:53
FLIGHT DATA
Crew: 
Speed: 
497 kts
Altitude: 
40,016 ft
Stage Length: 
596.9 nm
Block Time: 
2.1 hrs
Flight Time: 
1.9 hrs
Fuel Used: 
27,157 lb
Cleared Route: KIND STL CROCK SGF KOKC
TRACK DATA
50,000 ft 1,000 kts
AIRCRAFT INFO AND CUMULATIVE STATS
Aircraft Type: 
B772
Registration: 
SELCAL: 
ASFK
MSN/LN: 
26928 / 123
Operator: 
Total Flights: 
16
Total Block Time: 
46.4 hrs
Total Flight Time: 
42 hrs
Total Fuel Used: 
588,094 lb
DATALINK LOG | Newest first | Current as of: 2022-09-28 22:19:28
LABEL SEQUENCE CONTENT Dn/Up
QD563719:53 15.6▼ Dn
QC523319:48▼ Dn
GA2825GATE 12▲ Up
GR2814KOKC 19:44 HI-VAL NO DIPL/VIP NO▼ Dn
2U3139KOKC 131752Z 36014KT 9SM -SN SCT017 OVC045 M12/M16 A3036 RMK AO2 SLP303 4/001 P0000 60000 T11171156 11117 21133 50004▲ Up
5U3133KOKC 132223Z 01013G20KT 10SM BKN035 M12/M16 A3036▲ Up
2S3254KOKC▼ Dn
5S3253KOKC▼ Dn
5U2921KOKC 132223Z 01013G20KT 10SM BKN035 M12/M16 A3036▲ Up
5S3051KOKC▼ Dn
QB582017:56▼ Dn
QA440817:42 42.8▼ Dn
Q04206[LINK ACK]▲ Up
Q04206[LINK TEST]▼ Dn
A33409CLEARED TO KOKC VIA ROCKY1 STL J8 SGF GULLI2. SQUAWK 2252.▲ Up
2U3227KIND 131654Z 03007KT 10SM OVC016 M05/M09 A3018 RMK AO2 SLP233 T10501089▲ Up
2S3406KIND▼ Dn
Q03258[LINK ACK]▲ Up
Q03258[LINK TEST]▼ Dn


AIRCRAFT HISTORY
FLIGHT DATE FLIGHT NO. ORIGIN DESTINATION CLEARED ROUTE BLOCK TIME FLIGHT TIME FUEL USED PILOT
2022-07-29UAL729KGPI KABQ KGPI FCA SKOTT DLN DBS EVW HERSH RSK ROSEI SSKYE FORUN LOWBO JOKLO ITUNE MUSCC DWNLD CMSTR RW082.2 hrs1.9 hrs28,197 lbPete L.
2022-02-23UAL5896KMSY KGPI KMSY EIC MLC PER HYS HCT BFF BIL GTF SKOTT RW024 hrs3.7 hrs53,361 lbPete L.
2021-08-16UAL5835KGPI KMSY KGPI FCA SKOTT HLN BIL CZI BFF GLD IRW BYP AEX LSU AWDAD RW113.6 hrs3.4 hrs47,712 lbPete L.
2021-07-28UAL728KRDU KGPI KRDU RDU JAYRR GSO IIU IRK OVR ONL RAP BIL GTF SKOTT RW024.4 hrs4.1 hrs57,887 lbPete L.
2021-07-10UAL3885KBZN KRDU KBZN CHURC HYLIT BOBKT LVM SUBKY REEPO COLUS BIL RAP ONL OVR IRK IIU PSK MCDON FAVKO ALDAN BILLA BLNKR GABLR HEAVE SCHOO RW05L3.7 hrs3.4 hrs45,892 lbPete L.
2021-05-05UAL3891KSAN KBZN KSAN PGY BROWS JLI TRM BLD ILC BVL PIH DBS JOXIT RW302.3 hrs2 hrs28,429 lbPete L.
2021-04-25UAL5129CYLW KSAN CYLW YWBNB YWB YKM LKV FMG GMN LAX MRVEL SPYDE GAMBT LEJEN COMIX FLSHH LNTRN XMANS KLOMN RW272.8 hrs2.6 hrs35,196 lbPete L.
2021-03-27UAL3829KMSY CYLW KMSY EIC MLC PER HYS HCT BFF BIL GTF DORSE YXC TAGBA OMPIM NORIP LENUR UKVOD NORIP RW164.7 hrs4.4 hrs63,044 lbPete L.
2021-03-22UAL3910KRNO KMSY KRNO SPLTM RYANN YERIN BABIT OAL TBC GUP ABQ LBB ABI ACT LOA LFT AWDAD VOODO AWDAD RW113.4 hrs3.2 hrs45,524 lbPete L.
2021-03-18UAL5199KDEN KRNO KDEN MUGBE RALFI RAPDS PCKNS ZIMMR CHNGY VEL KNOLE BVL BAM MYBAD WHATZ WADOL UUPPP HOSME WINRZ WINRZ RW16R2.1 hrs1.8 hrs26,612 lbPete L.
2021-03-18UAL720KSFO KDEN KSFO URRSA SAHEY CIITY LLVII SYRAH JSICA LUDOH BUMMP SNOEE BOWLL ABASN KTOOO SSKII BGDEE TLRID EPPIC RDDVL CLFFF MERYN RW16R2.4 hrs1.9 hrs25,529 lbNiklas Graefe
2021-03-14UAL238KDEN KSFO KDEN VOAXA ELLFF WEEMN MANRD TRALP GDGET CRLES KATTS RUMPS INYOE KSFO2.5 hrs2.1 hrs28,849 lbZsolt Szivak
2021-03-09UAL468KORD KDEN KORD OLINN OREOS OBENE OGALE BRWRY DUNKL KOLSH PLZNR LAWGR PPINT BURRP YUPEE FFFAT DOGGG CRUUP RW35L2.4 hrs2.2 hrs29,928 lbDan Downs
2021-03-09UAL477KDEN KORD KDEN NUGGS HIDEF BRSTO GASSS SNIPR EMMYS ZIRKL PWE IRK KORD2.2 hrs1.9 hrs26,345 lbMichael Roth
2021-02-25UAL225KOKC KDEN KOKC ZEEWE KK36A HALEN KDEN1.5 hrs1.3 hrs18,433 lbAaron Buchanan
2021-02-13UAL213KIND KOKC KIND STL CROCK SGF KOKC2.1 hrs1.9 hrs27,157 lbAaron Buchanan